createdAt,value
2024-04-13T00:00:44.259Z,12.41
2024-04-13T00:01:44.229Z,12.40
2024-04-13T00:02:44.274Z,12.43
2024-04-13T00:03:44.431Z,12.38
2024-04-13T00:04:44.249Z,12.38
2024-04-13T00:05:44.207Z,12.43
2024-04-13T00:06:45.700Z,12.41
2024-04-13T00:07:44.146Z,12.43
2024-04-13T00:08:44.136Z,12.40
2024-04-13T00:09:44.121Z,12.41
2024-04-13T00:10:44.159Z,12.40
2024-04-13T00:11:44.116Z,12.40
2024-04-13T00:12:44.087Z,12.34
2024-04-13T00:13:44.085Z,12.30
2024-04-13T00:14:44.065Z,12.31
2024-04-13T00:15:44.052Z,12.38
2024-04-13T00:16:44.076Z,12.29
2024-04-13T00:17:44.069Z,12.26
2024-04-13T00:18:44.298Z,12.26
2024-04-13T00:19:44.008Z,12.30
2024-04-13T00:20:43.990Z,12.21
2024-04-13T00:21:43.994Z,12.23
2024-04-13T00:22:43.967Z,12.21
2024-04-13T00:23:43.972Z,12.15
2024-04-13T00:24:43.988Z,12.13
2024-04-13T00:25:43.950Z,12.19
2024-04-13T00:26:43.945Z,12.08
2024-04-13T00:27:43.921Z,12.04
2024-04-13T00:28:43.897Z,12.13
2024-04-13T00:29:43.895Z,12.13
2024-04-13T00:30:43.920Z,12.18
2024-04-13T00:31:43.990Z,12.07
2024-04-13T00:32:43.860Z,12.18
2024-04-13T00:33:43.844Z,12.12
2024-04-13T00:34:43.827Z,12.11
2024-04-13T00:35:43.813Z,12.08
2024-04-13T00:36:43.916Z,12.08
2024-04-13T00:37:43.815Z,12.12
2024-04-13T00:38:43.790Z,12.12
2024-04-13T00:39:43.820Z,12.16
2024-04-13T00:40:43.756Z,12.12
2024-04-13T00:41:43.777Z,12.07
2024-04-13T00:42:43.746Z,12.12
2024-04-13T00:43:43.724Z,12.12
2024-04-13T00:44:43.838Z,12.04
2024-04-13T00:45:43.842Z,12.04
2024-04-13T00:46:43.738Z,12.12
2024-04-13T00:47:43.767Z,12.07
2024-04-13T00:48:43.995Z,12.03
2024-04-13T00:49:43.649Z,11.94
2024-04-13T00:50:43.636Z,11.88
2024-04-13T00:51:43.632Z,11.88
2024-04-13T00:52:43.612Z,11.87
2024-04-13T00:53:43.600Z,11.87
2024-04-13T00:54:43.585Z,11.79
2024-04-13T00:55:43.577Z,11.79
2024-04-13T00:56:43.585Z,11.79
2024-04-13T00:57:43.549Z,11.90
2024-04-13T00:58:43.548Z,11.88
2024-04-13T00:59:43.531Z,11.88
2024-04-13T01:00:43.575Z,11.90
2024-04-13T01:01:43.509Z,11.84
2024-04-13T01:02:43.574Z,11.88
2024-04-13T01:03:43.607Z,11.87
2024-04-13T01:04:43.464Z,11.77
2024-04-13T01:05:43.480Z,11.77
2024-04-13T01:06:43.533Z,11.81
2024-04-13T01:07:43.441Z,11.77
2024-04-13T01:08:43.417Z,11.78
2024-04-13T01:09:43.406Z,11.78
2024-04-13T01:10:43.397Z,11.70
2024-04-13T01:11:43.480Z,11.85
2024-04-13T01:12:43.368Z,11.78
2024-04-13T01:13:43.362Z,11.69
2024-04-13T01:14:43.366Z,11.67
2024-04-13T01:15:43.332Z,11.72
2024-04-13T01:16:43.322Z,11.74
2024-04-13T01:17:43.432Z,11.87
2024-04-13T01:18:43.341Z,11.88
2024-04-13T01:19:43.288Z,11.85
2024-04-13T01:20:43.275Z,11.85
2024-04-13T01:21:43.289Z,11.81
2024-04-13T01:22:43.315Z,11.88
2024-04-13T01:23:43.241Z,11.81
2024-04-13T01:24:43.270Z,11.84
2024-04-13T01:25:43.220Z,11.82
2024-04-13T01:26:43.203Z,11.87
2024-04-13T01:27:43.184Z,11.79
2024-04-13T01:28:43.187Z,11.77
2024-04-13T01:29:43.165Z,11.63
2024-04-13T01:30:43.205Z,11.64
2024-04-13T01:31:43.147Z,11.63
2024-04-13T01:32:43.191Z,11.62
2024-04-13T01:33:43.187Z,11.57
2024-04-13T01:34:43.103Z,11.45
2024-04-13T01:35:43.087Z,11.56
2024-04-13T01:36:43.074Z,11.46
2024-04-13T01:37:43.070Z,11.49
2024-04-13T01:38:43.048Z,11.48
2024-04-13T01:39:43.079Z,11.57
2024-04-13T01:40:43.023Z,11.53
2024-04-13T01:41:43.029Z,11.59
2024-04-13T01:42:42.997Z,11.67
2024-04-13T01:43:42.996Z,11.60
2024-04-13T01:44:42.974Z,11.66
2024-04-13T01:45:42.980Z,11.51
2024-04-13T01:46:42.967Z,11.62
2024-04-13T01:47:43.090Z,11.67
2024-04-13T01:48:42.988Z,11.62
2024-04-13T01:49:42.916Z,11.67
2024-04-13T01:50:42.899Z,11.56
2024-04-13T01:51:42.894Z,11.59
2024-04-13T01:52:42.884Z,11.59
2024-04-13T01:53:42.870Z,11.48
2024-04-13T01:54:42.865Z,11.53
2024-04-13T01:55:42.854Z,11.59
2024-04-13T01:56:42.828Z,11.42
2024-04-13T01:57:42.839Z,11.51
2024-04-13T01:58:42.809Z,11.38
2024-04-13T01:59:42.789Z,11.39
2024-04-13T02:00:42.938Z,11.51
2024-04-13T02:01:42.774Z,11.38
2024-04-13T02:02:42.764Z,11.33
2024-04-13T02:03:42.830Z,11.31
2024-04-13T02:04:42.725Z,11.33
2024-04-13T02:05:42.716Z,11.35
2024-04-13T02:06:42.789Z,11.20
2024-04-13T02:07:42.689Z,11.26
2024-04-13T02:08:42.690Z,11.27
2024-04-13T02:09:42.678Z,11.20
2024-04-13T02:10:42.680Z,11.19
2024-04-13T02:11:42.642Z,11.24
2024-04-13T02:12:42.642Z,11.23
2024-04-13T02:13:42.637Z,11.16
2024-04-13T02:14:42.617Z,11.17
2024-04-13T02:15:42.631Z,11.21
2024-04-13T02:16:42.596Z,11.20
2024-04-13T02:17:42.622Z,11.21
2024-04-13T02:18:42.649Z,11.24
2024-04-13T02:19:42.559Z,11.20
2024-04-13T02:20:42.526Z,11.11
2024-04-13T02:21:42.635Z,11.13
2024-04-13T02:22:42.501Z,11.12
2024-04-13T02:23:42.495Z,11.19
2024-04-13T02:24:42.510Z,11.21
2024-04-13T02:25:42.469Z,11.23
2024-04-13T02:26:42.463Z,11.19
2024-04-13T02:27:42.458Z,11.24
2024-04-13T02:28:42.426Z,11.12
2024-04-13T02:29:42.414Z,11.11
2024-04-13T02:30:42.429Z,11.11
2024-04-13T02:31:42.394Z,11.09
2024-04-13T02:32:42.419Z,11.12
2024-04-13T02:33:42.401Z,11.02
2024-04-13T02:34:42.375Z,11.02
2024-04-13T02:35:42.342Z,10.94
2024-04-13T02:36:42.412Z,10.99
2024-04-13T02:37:42.314Z,10.91
2024-04-13T02:38:42.295Z,10.98
2024-04-13T02:39:42.301Z,10.99
2024-04-13T02:40:42.281Z,10.95
2024-04-13T02:41:42.262Z,10.93
2024-04-13T02:42:42.328Z,10.93
2024-04-13T02:43:42.243Z,10.94
2024-04-13T02:44:42.234Z,10.94
2024-04-13T02:45:42.234Z,10.87
2024-04-13T02:46:42.196Z,10.91
2024-04-13T02:47:42.361Z,11.01
2024-04-13T02:48:42.267Z,10.99
2024-04-13T02:49:42.163Z,10.99
2024-04-13T02:50:42.156Z,11.05
2024-04-13T02:51:42.177Z,10.83
2024-04-13T02:52:42.126Z,10.98
2024-04-13T02:53:42.106Z,11.01
2024-04-13T02:54:42.193Z,10.95
2024-04-13T02:55:42.104Z,11.01
2024-04-13T02:56:42.077Z,10.99
2024-04-13T02:57:42.082Z,10.87
2024-04-13T02:58:42.045Z,10.93
2024-04-13T02:59:42.030Z,10.86
2024-04-13T03:00:42.080Z,10.88
2024-04-13T03:01:42.004Z,10.76
2024-04-13T03:02:42.022Z,10.78
2024-04-13T03:03:42.075Z,10.75
2024-04-13T03:04:41.965Z,10.83
2024-04-13T03:05:41.956Z,10.76
2024-04-13T03:06:41.984Z,10.84
2024-04-13T03:07:41.923Z,10.68
2024-04-13T03:08:41.911Z,10.69
2024-04-13T03:09:41.942Z,10.70
2024-04-13T03:10:41.885Z,10.69
2024-04-13T03:11:41.892Z,10.72
2024-04-13T03:12:41.899Z,10.69
2024-04-13T03:13:41.858Z,10.72
2024-04-13T03:14:41.839Z,10.65
2024-04-13T03:15:41.849Z,10.81
2024-04-13T03:16:41.837Z,10.87
2024-04-13T03:17:41.820Z,10.84
2024-04-13T03:18:41.835Z,10.70
2024-04-13T03:19:41.773Z,10.66
2024-04-13T03:20:41.756Z,10.76
2024-04-13T03:21:41.820Z,10.76
2024-04-13T03:22:41.751Z,10.72
2024-04-13T03:23:41.750Z,10.70
2024-04-13T03:24:41.751Z,10.62
2024-04-13T03:25:41.696Z,10.54
2024-04-13T03:26:41.682Z,10.58
2024-04-13T03:27:41.730Z,10.66
2024-04-13T03:28:41.662Z,10.62
2024-04-13T03:29:41.639Z,10.65
2024-04-13T03:30:41.650Z,10.65
2024-04-13T03:31:41.614Z,10.60
2024-04-13T03:32:41.642Z,10.65
2024-04-13T03:33:41.668Z,10.60
2024-04-13T03:34:41.601Z,10.52
2024-04-13T03:35:41.581Z,10.58
2024-04-13T03:36:41.588Z,10.58
2024-04-13T03:37:41.543Z,10.62
2024-04-13T03:38:41.540Z,10.57
2024-04-13T03:39:41.556Z,10.60
2024-04-13T03:40:41.509Z,10.62
2024-04-13T03:41:41.485Z,10.54
2024-04-13T03:42:41.515Z,10.51
2024-04-13T03:43:41.469Z,10.52
2024-04-13T03:44:41.449Z,10.49
2024-04-13T03:45:41.496Z,10.51
2024-04-13T03:46:41.417Z,10.51
2024-04-13T03:47:41.484Z,10.62
2024-04-13T03:48:41.474Z,10.54
2024-04-13T03:49:41.382Z,10.54
2024-04-13T03:50:41.395Z,10.47
2024-04-13T03:51:41.417Z,10.36
2024-04-13T03:52:41.350Z,10.36
2024-04-13T03:53:41.331Z,10.38
2024-04-13T03:54:41.376Z,10.35
2024-04-13T03:55:41.302Z,10.38
2024-04-13T03:56:41.286Z,10.35
2024-04-13T03:57:41.331Z,10.36
2024-04-13T03:58:41.258Z,10.36
2024-04-13T03:59:41.255Z,10.39
2024-04-13T04:00:41.308Z,10.38
2024-04-13T04:01:41.271Z,10.38
2024-04-13T04:02:41.216Z,10.39
2024-04-13T04:03:41.282Z,10.42
2024-04-13T04:04:41.247Z,10.42
2024-04-13T04:05:41.169Z,10.44
2024-04-13T04:06:41.186Z,10.38
2024-04-13T04:07:41.147Z,10.35
2024-04-13T04:08:41.132Z,10.38
2024-04-13T04:09:41.134Z,10.34
2024-04-13T04:10:41.120Z,10.34
2024-04-13T04:11:41.099Z,10.26
2024-04-13T04:12:41.176Z,10.38
2024-04-13T04:13:41.077Z,10.32
2024-04-13T04:14:43.226Z,10.35
2024-04-13T04:15:41.092Z,10.25
2024-04-13T04:16:41.022Z,10.31
2024-04-13T04:17:41.204Z,10.26
2024-04-13T04:18:41.164Z,10.34
2024-04-13T04:19:40.986Z,10.29
2024-04-13T04:20:40.996Z,10.29
2024-04-13T04:21:41.024Z,10.36
2024-04-13T04:22:40.942Z,10.36
2024-04-13T04:23:40.938Z,10.28
2024-04-13T04:24:40.960Z,10.28
2024-04-13T04:25:40.904Z,10.29
2024-04-13T04:26:40.910Z,10.29
2024-04-13T04:27:40.960Z,10.36
2024-04-13T04:28:40.862Z,10.36
2024-04-13T04:29:40.905Z,10.42
2024-04-13T04:30:40.943Z,10.47
2024-04-13T04:31:40.827Z,10.55
2024-04-13T04:32:40.842Z,10.54
2024-04-13T04:33:41.031Z,10.62
2024-04-13T04:34:40.780Z,10.65
2024-04-13T04:35:40.771Z,10.69
2024-04-13T04:36:40.790Z,10.62
2024-04-13T04:37:40.746Z,10.62
2024-04-13T04:38:40.735Z,10.57
2024-04-13T04:39:40.800Z,10.57
2024-04-13T04:40:40.713Z,10.46
2024-04-13T04:41:40.693Z,10.36
2024-04-13T04:42:40.760Z,10.39
2024-04-13T04:43:40.674Z,10.38
2024-04-13T04:44:40.650Z,10.44
2024-04-13T04:45:40.742Z,10.39
2024-04-13T04:46:42.273Z,10.36
2024-04-13T04:47:40.693Z,10.34
2024-04-13T04:48:40.903Z,10.29
2024-04-13T04:49:40.586Z,10.36
2024-04-13T04:50:40.570Z,10.29
2024-04-13T04:51:40.643Z,10.22
2024-04-13T04:52:43.418Z,10.36
2024-04-13T04:53:40.532Z,10.31
2024-04-13T04:54:40.569Z,10.35
2024-04-13T04:55:40.507Z,10.46
2024-04-13T04:56:40.543Z,10.36
2024-04-13T04:57:40.485Z,10.36
2024-04-13T04:58:40.503Z,10.34
2024-04-13T04:59:40.450Z,10.35
2024-04-13T05:00:40.641Z,10.39
2024-04-13T05:01:40.424Z,10.43
2024-04-13T05:02:40.475Z,10.38
2024-04-13T05:03:40.508Z,10.43
2024-04-13T05:04:40.392Z,10.38
2024-04-13T05:05:40.406Z,10.36
2024-04-13T05:06:40.399Z,10.36
2024-04-13T05:07:40.384Z,10.36
2024-04-13T05:08:40.339Z,10.39
2024-04-13T05:09:40.403Z,10.44
2024-04-13T05:10:40.321Z,10.46
2024-04-13T05:11:40.294Z,10.35
2024-04-13T05:12:40.326Z,10.39
2024-04-13T05:13:40.263Z,10.39
2024-04-13T05:14:40.268Z,10.52
2024-04-13T05:15:40.374Z,10.63
2024-04-13T05:16:40.232Z,10.60
2024-04-13T05:17:40.284Z,10.63
2024-04-13T05:18:40.456Z,10.63
2024-04-13T05:19:40.413Z,10.60
2024-04-13T05:20:40.202Z,10.75
2024-04-13T05:21:40.244Z,10.76
2024-04-13T05:22:40.351Z,10.80
2024-04-13T05:23:40.133Z,10.73
2024-04-13T05:24:40.268Z,10.69
2024-04-13T05:25:40.105Z,10.70
2024-04-13T05:26:40.097Z,10.76
2024-04-13T05:27:40.210Z,10.87
2024-04-13T05:28:40.072Z,10.99
2024-04-13T05:29:40.057Z,11.08
2024-04-13T05:30:40.231Z,11.09
2024-04-13T05:31:40.028Z,11.19
2024-04-13T05:32:40.085Z,11.28
2024-04-13T05:33:40.310Z,11.46
2024-04-13T05:34:40.000Z,11.59
2024-04-13T05:35:39.978Z,11.64
2024-04-13T05:36:40.095Z,11.81
2024-04-13T05:37:39.951Z,11.84
2024-04-13T05:38:39.946Z,11.88
2024-04-13T05:39:40.047Z,12.03
2024-04-13T05:40:39.916Z,12.13
2024-04-13T05:41:39.914Z,12.33
2024-04-13T05:42:39.963Z,12.29
2024-04-13T05:43:39.873Z,12.41
2024-04-13T05:44:39.874Z,12.54
2024-04-13T05:45:40.063Z,12.62
2024-04-13T05:46:39.863Z,12.71
2024-04-13T05:47:39.836Z,12.77
2024-04-13T05:48:39.846Z,12.87
2024-04-13T05:49:39.836Z,12.85
2024-04-13T05:50:39.797Z,12.99
2024-04-13T05:51:39.799Z,13.07
2024-04-13T05:52:39.768Z,13.13
2024-04-13T05:53:39.765Z,13.12
2024-04-13T05:54:39.871Z,13.21
2024-04-13T05:55:39.743Z,13.19
2024-04-13T05:56:39.722Z,13.22
2024-04-13T05:57:39.755Z,13.28
2024-04-13T05:58:39.692Z,13.29
2024-04-13T05:59:39.682Z,13.29
2024-04-13T06:00:39.785Z,13.38
2024-04-13T06:01:39.683Z,13.36
2024-04-13T06:02:39.729Z,13.41
2024-04-13T06:03:39.648Z,13.47
2024-04-13T06:04:39.681Z,13.54
2024-04-13T06:05:42.398Z,13.54
2024-04-13T06:06:39.656Z,13.66
2024-04-13T06:07:39.585Z,13.66
2024-04-13T06:08:39.584Z,13.72
2024-04-13T06:09:39.620Z,13.79
2024-04-13T06:10:39.550Z,13.86
2024-04-13T06:11:39.535Z,13.86
2024-04-13T06:12:39.609Z,13.88
2024-04-13T06:13:39.522Z,13.96
2024-04-13T06:14:39.515Z,14.17
2024-04-13T06:15:39.557Z,14.11
2024-04-13T06:16:39.515Z,14.30
2024-04-13T06:17:39.527Z,14.30
2024-04-13T06:18:39.515Z,14.13
2024-04-13T06:19:39.466Z,13.87
2024-04-13T06:20:39.436Z,13.72
2024-04-13T06:21:39.475Z,13.48
2024-04-13T06:22:39.415Z,13.44
2024-04-13T06:23:39.555Z,13.38
2024-04-13T06:24:39.460Z,13.25
2024-04-13T06:25:39.393Z,13.35
2024-04-13T06:26:39.377Z,13.43
2024-04-13T06:27:39.491Z,13.48
2024-04-13T06:28:39.367Z,13.75
2024-04-13T06:29:39.333Z,13.75
2024-04-13T06:30:39.374Z,13.84
2024-04-13T06:31:39.314Z,13.94
2024-04-13T06:32:39.365Z,14.17
2024-04-13T06:33:39.410Z,14.29
2024-04-13T06:34:39.297Z,14.31
2024-04-13T06:35:39.276Z,14.45
2024-04-13T06:36:41.681Z,14.44
2024-04-13T06:37:39.250Z,14.57
2024-04-13T06:38:39.237Z,14.63
2024-04-13T06:39:39.245Z,14.64
2024-04-13T06:40:39.214Z,14.66
2024-04-13T06:41:39.250Z,14.79
2024-04-13T06:42:39.240Z,14.83
2024-04-13T06:43:39.194Z,14.95
2024-04-13T06:44:39.172Z,14.98
2024-04-13T06:45:39.229Z,15.04
2024-04-13T06:46:39.202Z,15.11
2024-04-13T06:47:39.160Z,15.30
2024-04-13T06:48:39.165Z,15.28
2024-04-13T06:49:39.115Z,15.35
2024-04-13T06:50:39.119Z,15.35
2024-04-13T06:51:39.107Z,15.53
2024-04-13T06:52:39.092Z,15.46
2024-04-13T06:53:39.072Z,15.62
2024-04-13T06:54:40.848Z,15.49
2024-04-13T06:55:39.053Z,15.58
2024-04-13T06:56:39.049Z,15.64
2024-04-13T06:57:39.066Z,15.77
2024-04-13T06:58:39.022Z,15.88
2024-04-13T06:59:39.010Z,15.96
2024-04-13T07:00:39.046Z,15.96
2024-04-13T07:01:39.051Z,16.16
2024-04-13T07:02:39.017Z,16.27
2024-04-13T07:03:39.058Z,16.26
2024-04-13T07:04:39.020Z,16.40
2024-04-13T07:05:38.959Z,16.40
2024-04-13T07:06:38.963Z,16.57
2024-04-13T07:07:38.931Z,16.47
2024-04-13T07:08:44.122Z,16.54
2024-04-13T07:09:38.950Z,16.66
2024-04-13T07:10:38.936Z,16.65
2024-04-13T07:11:38.901Z,16.72
2024-04-13T07:12:38.918Z,16.72
2024-04-13T07:13:38.871Z,16.75
2024-04-13T07:14:38.863Z,16.84
2024-04-13T07:15:38.868Z,16.84
2024-04-13T07:16:38.889Z,16.92
2024-04-13T07:17:38.854Z,16.92
2024-04-13T07:18:38.888Z,16.99
2024-04-13T07:19:38.810Z,16.96
2024-04-13T07:20:38.807Z,16.87
2024-04-13T07:21:38.815Z,16.91
2024-04-13T07:22:38.806Z,16.85
2024-04-13T07:23:38.788Z,16.98
2024-04-13T07:24:38.822Z,17.02
2024-04-13T07:25:38.760Z,16.92
2024-04-13T07:26:38.754Z,16.95
2024-04-13T07:27:38.796Z,16.95
2024-04-13T07:28:38.937Z,16.98
2024-04-13T07:29:38.719Z,16.99
2024-04-13T07:30:38.762Z,16.95
2024-04-13T07:31:38.699Z,16.88
2024-04-13T07:32:38.853Z,16.99
2024-04-13T07:33:38.858Z,16.99
2024-04-13T07:34:38.677Z,17.00
2024-04-13T07:35:38.666Z,17.12
2024-04-13T07:36:38.672Z,17.09
2024-04-13T07:37:38.640Z,17.24
2024-04-13T07:38:38.770Z,17.25
2024-04-13T07:39:38.652Z,17.49
2024-04-13T07:40:38.771Z,17.32
2024-04-13T07:41:38.607Z,17.36
2024-04-13T07:42:38.627Z,17.49
2024-04-13T07:43:38.639Z,17.54
2024-04-13T07:44:41.274Z,17.54
2024-04-13T07:45:38.612Z,17.55
2024-04-13T07:46:38.568Z,17.62
2024-04-13T07:47:38.577Z,17.70
2024-04-13T07:48:38.626Z,17.80
2024-04-13T07:49:38.539Z,17.89
2024-04-13T07:50:38.533Z,17.91
2024-04-13T07:51:38.557Z,18.01
2024-04-13T07:52:38.527Z,18.09
2024-04-13T07:53:38.501Z,18.11
2024-04-13T07:54:38.526Z,18.14
2024-04-13T07:55:38.484Z,18.35
2024-04-13T07:56:38.485Z,18.34
2024-04-13T07:57:38.484Z,18.38
2024-04-13T07:58:38.463Z,18.46
2024-04-13T07:59:38.453Z,18.56
2024-04-13T08:00:38.511Z,18.65
2024-04-13T08:01:38.499Z,18.69
2024-04-13T08:02:38.440Z,18.75
2024-04-13T08:03:38.636Z,18.78
2024-04-13T08:04:40.881Z,18.84
2024-04-13T08:05:38.414Z,18.89
2024-04-13T08:06:38.484Z,18.93
2024-04-13T08:07:38.385Z,18.93
2024-04-13T08:08:38.391Z,18.96
2024-04-13T08:09:38.422Z,18.97
2024-04-13T08:10:38.381Z,18.94
2024-04-13T08:11:38.353Z,19.05
2024-04-13T08:12:38.391Z,18.78
2024-04-13T08:13:38.335Z,18.57
2024-04-13T08:14:38.334Z,18.53
2024-04-13T08:15:38.337Z,18.60
2024-04-13T08:16:38.367Z,18.74
2024-04-13T08:17:38.324Z,18.79
2024-04-13T08:18:38.329Z,18.83
2024-04-13T08:19:38.289Z,19.05
2024-04-13T08:20:38.286Z,19.13
2024-04-13T08:21:38.348Z,19.12
2024-04-13T08:22:38.269Z,19.21
2024-04-13T08:23:38.288Z,19.32
2024-04-13T08:24:38.335Z,19.30
2024-04-13T08:25:38.253Z,19.49
2024-04-13T08:26:38.276Z,19.58
2024-04-13T08:27:38.268Z,19.67
2024-04-13T08:28:38.256Z,19.53
2024-04-13T08:29:38.221Z,19.62
2024-04-13T08:30:38.301Z,19.40
2024-04-13T08:31:38.267Z,19.47
2024-04-13T08:32:38.203Z,19.58
2024-04-13T08:33:38.293Z,19.52
2024-04-13T08:34:38.185Z,19.49
2024-04-13T08:35:38.177Z,19.62
2024-04-13T08:36:38.202Z,19.72
2024-04-13T08:37:38.154Z,19.87
2024-04-13T08:38:38.230Z,19.89
2024-04-13T08:39:38.157Z,19.94
2024-04-13T08:40:38.339Z,19.87
2024-04-13T08:41:38.138Z,19.82
2024-04-13T08:42:38.163Z,19.76
2024-04-13T08:43:38.162Z,19.80
2024-04-13T08:44:38.113Z,19.89
2024-04-13T08:45:38.142Z,19.90
2024-04-13T08:46:38.092Z,19.95
2024-04-13T08:47:38.179Z,19.92
2024-04-13T08:48:38.187Z,20.02
2024-04-13T08:49:38.114Z,20.10
2024-04-13T08:50:38.064Z,20.22
2024-04-13T08:51:38.075Z,20.16
2024-04-13T08:52:38.051Z,20.33
2024-04-13T08:53:38.041Z,20.46
2024-04-13T08:54:38.058Z,20.66
2024-04-13T08:55:38.027Z,20.68
2024-04-13T08:56:38.035Z,20.78
2024-04-13T08:57:38.093Z,20.83
2024-04-13T08:58:38.199Z,20.85
2024-04-13T08:59:37.999Z,20.96
2024-04-13T09:00:38.045Z,20.85
2024-04-13T09:01:38.051Z,20.78
2024-04-13T09:02:37.979Z,20.46
2024-04-13T09:03:38.086Z,20.17
2024-04-13T09:04:37.977Z,20.08
2024-04-13T09:05:37.968Z,20.08
2024-04-13T09:06:38.006Z,20.07
2024-04-13T09:07:37.945Z,20.20
2024-04-13T09:08:37.942Z,20.31
2024-04-13T09:09:37.940Z,20.38
2024-04-13T09:10:37.927Z,20.46
2024-04-13T09:11:37.947Z,20.50
2024-04-13T09:12:37.939Z,20.60
2024-04-13T09:13:41.700Z,20.58
2024-04-13T09:14:37.919Z,20.75
2024-04-13T09:15:37.947Z,20.83
2024-04-13T09:16:37.892Z,20.91
2024-04-13T09:17:38.014Z,20.96
2024-04-13T09:18:38.070Z,20.98
2024-04-13T09:19:37.867Z,20.94
2024-04-13T09:20:37.860Z,20.60
2024-04-13T09:21:37.938Z,20.71
2024-04-13T09:22:37.843Z,20.64
2024-04-13T09:23:37.839Z,20.76
2024-04-13T09:24:37.852Z,20.64
2024-04-13T09:25:37.831Z,20.64
2024-04-13T09:26:37.827Z,20.78
2024-04-13T09:27:37.876Z,20.90
2024-04-13T09:28:37.810Z,20.96
2024-04-13T09:29:37.817Z,20.96
2024-04-13T09:30:37.888Z,21.11
2024-04-13T09:31:37.791Z,21.21
2024-04-13T09:32:37.981Z,21.27
2024-04-13T09:33:37.838Z,21.42
2024-04-13T09:34:37.767Z,21.51
2024-04-13T09:35:37.780Z,21.64
2024-04-13T09:36:40.104Z,21.71
2024-04-13T09:37:37.752Z,21.91
2024-04-13T09:38:37.759Z,21.89
2024-04-13T09:39:37.774Z,21.74
2024-04-13T09:40:37.732Z,21.73
2024-04-13T09:41:37.728Z,21.90
2024-04-13T09:42:37.763Z,21.83
2024-04-13T09:43:37.726Z,21.99
2024-04-13T09:44:37.712Z,22.05
2024-04-13T09:45:37.747Z,22.05
2024-04-13T09:46:37.723Z,22.19
2024-04-13T09:47:37.782Z,22.21
2024-04-13T09:48:37.863Z,22.36
2024-04-13T09:49:37.714Z,22.45
2024-04-13T09:50:37.690Z,22.54
2024-04-13T09:51:37.685Z,22.60
2024-04-13T09:52:37.665Z,22.63
2024-04-13T09:53:37.665Z,22.69
2024-04-13T09:54:37.734Z,22.69
2024-04-13T09:55:37.649Z,22.72
2024-04-13T09:56:37.643Z,22.79
2024-04-13T09:57:37.713Z,22.96
2024-04-13T09:58:37.640Z,22.96
2024-04-13T09:59:37.635Z,23.00
2024-04-13T10:00:37.933Z,23.19
2024-04-13T10:01:37.827Z,23.25
2024-04-13T10:02:37.832Z,23.29
2024-04-13T10:03:37.729Z,23.26
2024-04-13T10:04:37.635Z,23.26
2024-04-13T10:05:37.600Z,23.22
2024-04-13T10:06:37.650Z,23.34
2024-04-13T10:07:37.605Z,23.31
2024-04-13T10:08:37.582Z,23.31
2024-04-13T10:09:37.604Z,23.39
2024-04-13T10:10:37.574Z,23.49
2024-04-13T10:11:37.631Z,23.49
2024-04-13T10:12:37.828Z,23.56
2024-04-13T10:13:37.583Z,23.57
2024-04-13T10:14:37.553Z,23.63
2024-04-13T10:15:37.642Z,23.63
2024-04-13T10:16:37.576Z,23.64
2024-04-13T10:17:37.617Z,23.72
2024-04-13T10:18:37.691Z,23.75
2024-04-13T10:19:37.590Z,23.84
2024-04-13T10:20:37.580Z,23.90
2024-04-13T10:21:37.668Z,23.89
2024-04-13T10:22:38.709Z,23.96
2024-04-13T10:23:37.537Z,23.97
2024-04-13T10:24:37.540Z,23.96
2024-04-13T10:25:37.532Z,23.99
2024-04-13T10:26:37.517Z,24.11
2024-04-13T10:27:37.673Z,24.12
2024-04-13T10:28:37.521Z,24.18
2024-04-13T10:29:37.519Z,24.21
2024-04-13T10:30:37.550Z,24.33
2024-04-13T10:31:37.521Z,24.37
2024-04-13T10:32:37.525Z,24.53
2024-04-13T10:33:37.544Z,24.53
2024-04-13T10:34:37.504Z,24.61
2024-04-13T10:35:37.492Z,24.64
2024-04-13T10:36:37.686Z,24.56
2024-04-13T10:37:37.490Z,24.59
2024-04-13T10:38:37.502Z,24.75
2024-04-13T10:39:37.486Z,24.79
2024-04-13T10:40:37.470Z,24.70
2024-04-13T10:41:37.450Z,24.74
2024-04-13T10:42:37.490Z,24.66
2024-04-13T10:43:37.449Z,24.75
2024-04-13T10:45:37.509Z,24.44
2024-04-13T10:46:37.444Z,24.59
2024-04-13T10:47:37.491Z,24.60
2024-04-13T10:48:37.493Z,24.29
2024-04-13T10:49:39.912Z,24.31
2024-04-13T10:50:37.536Z,24.41
2024-04-13T10:51:37.452Z,24.46
2024-04-13T10:52:37.436Z,24.60
2024-04-13T10:53:37.430Z,24.77
2024-04-13T10:54:37.498Z,24.77
2024-04-13T10:55:37.427Z,24.90
2024-04-13T10:56:37.424Z,25.04
2024-04-13T10:57:37.461Z,25.07
2024-04-13T10:58:37.416Z,25.12
2024-04-13T10:59:37.407Z,25.08
2024-04-13T11:00:37.441Z,25.22
2024-04-13T11:02:37.411Z,25.20
2024-04-13T11:03:37.462Z,25.09
2024-04-13T11:04:37.405Z,25.16
2024-04-13T11:05:37.387Z,25.12
2024-04-13T11:06:37.413Z,25.24
2024-04-13T11:07:37.401Z,25.34
2024-04-13T11:08:37.367Z,25.38
2024-04-13T11:09:37.435Z,25.57
2024-04-13T11:10:37.361Z,25.57
2024-04-13T11:11:37.386Z,25.51
2024-04-13T11:12:37.385Z,25.54
2024-04-13T11:13:37.355Z,25.45
2024-04-13T11:14:37.359Z,25.42
2024-04-13T11:15:37.427Z,25.57
2024-04-13T11:16:37.375Z,25.49
2024-04-13T11:17:37.438Z,25.46
2024-04-13T11:18:37.604Z,25.51
2024-04-13T11:19:37.372Z,25.46
2024-04-13T11:20:37.333Z,25.61
2024-04-13T11:21:37.407Z,25.66
2024-04-13T11:22:37.337Z,25.67
2024-04-13T11:23:37.322Z,25.69
2024-04-13T11:24:37.387Z,25.72
2024-04-13T11:25:37.321Z,25.79
2024-04-13T11:26:37.318Z,25.79
2024-04-13T11:27:37.387Z,25.81
2024-04-13T11:28:37.342Z,25.89
2024-04-13T11:29:37.300Z,25.82
2024-04-13T11:30:37.322Z,25.96
2024-04-13T11:31:37.333Z,26.08
2024-04-13T11:32:37.332Z,26.19
2024-04-13T11:33:37.329Z,26.13
2024-04-13T11:34:37.298Z,26.17
2024-04-13T11:35:37.307Z,26.35
2024-04-13T11:36:37.348Z,26.41
2024-04-13T11:37:37.283Z,26.36
2024-04-13T11:38:37.292Z,26.49
2024-04-13T11:39:37.328Z,26.51
2024-04-13T11:40:37.287Z,26.51
2024-04-13T11:41:37.277Z,26.60
2024-04-13T11:42:45.583Z,26.65
2024-04-13T11:43:37.293Z,26.59
2024-04-13T11:44:37.277Z,26.56
2024-04-13T11:45:40.077Z,26.68
2024-04-13T11:46:37.258Z,26.57
2024-04-13T11:47:37.464Z,26.68
2024-04-13T11:48:37.350Z,26.83
2024-04-13T11:49:40.659Z,26.71
2024-04-13T11:50:37.267Z,26.78
2024-04-13T11:51:37.372Z,26.65
2024-04-13T11:52:37.252Z,26.73
2024-04-13T11:53:37.259Z,26.75
2024-04-13T11:54:37.311Z,26.56
2024-04-13T11:55:39.258Z,26.69
2024-04-13T11:56:37.246Z,26.76
2024-04-13T11:57:37.295Z,26.71
2024-04-13T11:58:37.246Z,26.76
2024-04-13T11:59:37.235Z,26.68
2024-04-13T12:00:37.314Z,26.75
2024-04-13T12:01:37.263Z,26.84
2024-04-13T12:02:37.332Z,26.90
2024-04-13T12:03:37.279Z,27.06
2024-04-13T12:04:37.270Z,26.97
2024-04-13T12:05:37.227Z,27.06
2024-04-13T12:06:37.248Z,27.11
2024-04-13T12:07:37.223Z,27.08
2024-04-13T12:08:37.225Z,27.03
2024-04-13T12:09:37.473Z,27.03
2024-04-13T12:10:37.222Z,27.23
2024-04-13T12:11:37.273Z,27.21
2024-04-13T12:12:37.254Z,27.30
2024-04-13T12:13:37.216Z,27.21
2024-04-13T12:14:46.745Z,27.28
2024-04-13T12:15:37.248Z,27.31
2024-04-13T12:16:37.216Z,27.21
2024-04-13T12:17:37.328Z,27.30
2024-04-13T12:18:37.431Z,27.30
2024-04-13T12:19:37.204Z,27.25
2024-04-13T12:20:37.201Z,27.27
2024-04-13T12:21:37.217Z,27.23
2024-04-13T12:22:37.209Z,27.20
2024-04-13T12:23:37.211Z,27.15
2024-04-13T12:24:37.315Z,27.24
2024-04-13T12:25:37.232Z,27.24
2024-04-13T12:26:37.206Z,27.28
2024-04-13T12:27:37.280Z,27.27
2024-04-13T12:29:37.245Z,27.25
2024-04-13T12:30:37.231Z,27.30
2024-04-13T12:31:37.184Z,27.25
2024-04-13T12:32:37.251Z,27.33
2024-04-13T12:33:37.295Z,27.39
2024-04-13T12:34:37.213Z,27.55
2024-04-13T12:35:37.189Z,27.50
2024-04-13T12:36:37.337Z,27.52
2024-04-13T12:37:37.250Z,27.53
2024-04-13T12:38:37.289Z,27.55
2024-04-13T12:39:37.284Z,27.52
2024-04-13T12:40:37.237Z,27.38
2024-04-13T12:41:37.226Z,27.40
2024-04-13T12:42:37.328Z,27.46
2024-04-13T12:43:37.292Z,27.42
2024-04-13T12:44:37.185Z,27.42
2024-04-13T12:45:37.291Z,27.48
2024-04-13T12:46:37.260Z,27.40
2024-04-13T12:47:37.365Z,27.43
2024-04-13T12:48:37.472Z,27.48
2024-04-13T12:49:37.170Z,27.49
2024-04-13T12:50:37.262Z,27.55
2024-04-13T12:51:37.219Z,27.65
2024-04-13T12:52:37.270Z,27.72
2024-04-13T12:53:37.228Z,27.77
2024-04-13T12:54:37.253Z,27.76
2024-04-13T12:55:37.284Z,27.87